createdAt,value
2023-05-09T00:01:50.294Z,18.52
2023-05-09T00:04:36.698Z,17.45
2023-05-09T00:07:22.915Z,17.98
2023-05-09T00:10:09.132Z,19.45
2023-05-09T00:12:56.168Z,17.80
2023-05-09T00:15:42.336Z,14.15
2023-05-09T00:18:31.406Z,13.73
2023-05-09T00:21:17.750Z,14.52
2023-05-09T00:24:04.636Z,19.98
2023-05-09T00:26:51.278Z,16.70
2023-05-09T00:29:37.557Z,14.63
2023-05-09T00:32:25.136Z,15.68
2023-05-09T00:35:11.757Z,17.42
2023-05-09T00:37:58.795Z,18.55
2023-05-09T00:40:45.273Z,15.43
2023-05-09T00:43:31.336Z,17.42
2023-05-09T00:46:18.245Z,19.75
2023-05-09T00:49:04.621Z,17.35
2023-05-09T00:51:51.324Z,12.60
2023-05-09T00:54:38.193Z,17.15
2023-05-09T00:57:24.990Z,22.38
2023-05-09T01:00:13.498Z,14.90
2023-05-09T01:03:00.322Z,14.23
2023-05-09T01:05:49.764Z,16.45
2023-05-09T01:09:00.061Z,18.40
2023-05-09T01:12:12.860Z,14.10
2023-05-09T01:15:07.264Z,19.83
2023-05-09T01:17:53.314Z,16.90
2023-05-09T01:20:53.491Z,18.77
2023-05-09T01:24:02.489Z,19.00
2023-05-09T01:27:08.474Z,20.25
2023-05-09T01:29:58.407Z,15.48
2023-05-09T01:32:47.045Z,17.98
2023-05-09T01:35:34.191Z,15.20
2023-05-09T01:38:22.949Z,13.73
2023-05-09T01:41:10.463Z,13.05
2023-05-09T01:43:58.331Z,17.98
2023-05-09T01:46:45.386Z,21.77
2023-05-09T01:49:33.670Z,17.42
2023-05-09T01:52:20.861Z,19.17
2023-05-09T01:55:07.817Z,16.65
2023-05-09T01:57:55.004Z,18.02
2023-05-09T02:00:42.056Z,18.30
2023-05-09T02:03:28.789Z,20.67
2023-05-09T02:06:16.147Z,13.15
2023-05-09T02:09:03.531Z,16.50
2023-05-09T02:11:50.116Z,20.85
2023-05-09T02:14:36.588Z,14.85
2023-05-09T02:17:22.960Z,14.43
2023-05-09T02:20:12.436Z,17.10
2023-05-09T02:22:59.068Z,15.35
2023-05-09T02:25:45.648Z,15.10
2023-05-09T02:28:32.259Z,19.95
2023-05-09T02:31:21.030Z,20.75
2023-05-09T02:34:08.138Z,13.68
2023-05-09T02:36:54.639Z,14.57
2023-05-09T02:39:41.377Z,15.48
2023-05-09T02:42:30.144Z,16.95
2023-05-09T02:45:17.356Z,14.43
2023-05-09T02:48:06.906Z,12.73
2023-05-09T02:50:54.510Z,13.00
2023-05-09T02:53:41.017Z,20.60
2023-05-09T02:56:27.147Z,12.35
2023-05-09T02:59:13.263Z,13.32
2023-05-09T03:01:59.399Z,13.00
2023-05-09T03:04:45.531Z,15.23
2023-05-09T03:07:31.802Z,15.50
2023-05-09T03:10:17.962Z,16.27
2023-05-09T03:13:04.307Z,15.45
2023-05-09T03:15:50.742Z,11.18
2023-05-09T03:18:37.493Z,17.02
2023-05-09T03:21:34.495Z,15.63
2023-05-09T03:24:21.078Z,13.15
2023-05-09T03:27:07.435Z,13.73
2023-05-09T03:29:53.694Z,15.93
2023-05-09T03:32:40.331Z,13.73
2023-05-09T03:35:26.540Z,14.95
2023-05-09T03:38:14.144Z,14.23
2023-05-09T03:41:00.463Z,19.08
2023-05-09T03:43:47.931Z,11.52
2023-05-09T03:46:34.334Z,13.65
2023-05-09T03:49:21.019Z,11.15
2023-05-09T03:52:11.075Z,18.70
2023-05-09T03:54:57.867Z,19.00
2023-05-09T03:57:45.056Z,13.75
2023-05-09T04:00:31.497Z,13.32
2023-05-09T04:03:27.239Z,13.10
2023-05-09T04:06:14.393Z,22.00
2023-05-09T04:09:03.455Z,16.35
2023-05-09T04:11:49.750Z,16.17
2023-05-09T04:14:36.359Z,16.77
2023-05-09T04:17:23.702Z,14.75
2023-05-09T04:20:10.882Z,16.38
2023-05-09T04:22:59.083Z,13.30
2023-05-09T04:25:45.630Z,14.68
2023-05-09T04:28:31.794Z,18.08
2023-05-09T04:31:18.159Z,18.95
2023-05-09T04:34:09.183Z,15.73
2023-05-09T04:36:59.923Z,12.02
2023-05-09T04:39:46.687Z,14.55
2023-05-09T04:42:38.989Z,9.68
2023-05-09T04:45:26.163Z,15.48
2023-05-09T04:48:12.273Z,13.73
2023-05-09T04:50:58.777Z,17.80
2023-05-09T04:53:44.968Z,21.90
2023-05-09T04:56:31.474Z,15.38
2023-05-09T04:59:19.221Z,14.50
2023-05-09T05:02:06.723Z,17.58
2023-05-09T05:05:02.988Z,21.60
2023-05-09T05:07:58.172Z,15.40
2023-05-09T05:10:51.263Z,14.98
2023-05-09T05:13:39.092Z,17.15
2023-05-09T05:16:26.008Z,17.42
2023-05-09T05:19:12.290Z,18.10
2023-05-09T05:22:00.744Z,14.32
2023-05-09T05:24:47.068Z,17.30
2023-05-09T05:27:34.983Z,17.25
2023-05-09T05:30:21.965Z,11.73
2023-05-09T05:33:08.830Z,15.65
2023-05-09T05:35:55.169Z,15.90
2023-05-09T05:38:41.643Z,13.95
2023-05-09T05:41:28.598Z,22.38
2023-05-09T05:44:15.456Z,11.60
2023-05-09T05:47:01.958Z,15.40
2023-05-09T05:49:48.379Z,20.20
2023-05-09T05:52:34.703Z,17.25
2023-05-09T05:55:22.137Z,15.57
2023-05-09T05:58:08.507Z,17.55
2023-05-09T06:00:55.351Z,17.00
2023-05-09T06:03:41.530Z,25.08
2023-05-09T06:06:28.758Z,24.98
2023-05-09T06:09:15.217Z,12.70
2023-05-09T06:12:01.622Z,19.77
2023-05-09T06:14:48.560Z,17.05
2023-05-09T06:17:34.815Z,17.80
2023-05-09T06:20:21.487Z,13.18
2023-05-09T06:23:07.439Z,18.15
2023-05-09T06:25:53.389Z,11.07
2023-05-09T06:28:39.814Z,14.93
2023-05-09T06:31:26.385Z,11.65
2023-05-09T06:34:13.083Z,12.98
2023-05-09T06:36:59.720Z,19.95
2023-05-09T06:39:46.163Z,18.80
2023-05-09T06:42:33.856Z,16.55
2023-05-09T06:45:20.477Z,11.25
2023-05-09T06:48:06.978Z,19.42
2023-05-09T06:50:53.268Z,16.02
2023-05-09T06:53:39.766Z,15.32
2023-05-09T06:56:26.622Z,14.02
2023-05-09T06:59:13.597Z,12.02
2023-05-09T07:02:00.013Z,15.48
2023-05-09T07:04:49.265Z,19.27
2023-05-09T07:07:36.089Z,10.82
2023-05-09T07:10:22.482Z,10.02
2023-05-09T07:13:09.493Z,20.90
2023-05-09T07:15:56.169Z,14.77
2023-05-09T07:18:42.930Z,10.27
2023-05-09T07:21:29.357Z,16.65
2023-05-09T07:24:15.702Z,9.90
2023-05-09T07:27:06.061Z,7.00
2023-05-09T07:29:52.967Z,13.20
2023-05-09T07:32:38.930Z,9.68
2023-05-09T07:35:25.598Z,8.35
2023-05-09T07:38:12.213Z,11.80
2023-05-09T07:40:58.674Z,8.98
2023-05-09T07:43:45.357Z,6.43
2023-05-09T07:46:31.666Z,10.13
2023-05-09T07:49:17.929Z,9.25
2023-05-09T07:52:04.201Z,8.20
2023-05-09T07:54:50.463Z,8.38
2023-05-09T07:57:36.616Z,9.05
2023-05-09T08:00:24.110Z,10.95
2023-05-09T08:03:12.191Z,9.13
2023-05-09T08:05:59.411Z,5.18
2023-05-09T08:08:46.128Z,9.35
2023-05-09T08:11:36.507Z,11.05
2023-05-09T08:14:25.672Z,10.48
2023-05-09T08:17:12.001Z,11.70
2023-05-09T08:19:58.380Z,7.22
2023-05-09T08:22:44.857Z,7.40
2023-05-09T08:25:31.171Z,11.95
2023-05-09T08:28:18.095Z,9.98
2023-05-09T08:31:04.728Z,12.27
2023-05-09T08:33:50.702Z,11.88
2023-05-09T08:36:37.063Z,8.80
2023-05-09T08:39:23.641Z,12.25
2023-05-09T08:42:10.801Z,6.68
2023-05-09T08:44:57.546Z,9.43
2023-05-09T08:47:44.324Z,11.75
2023-05-09T08:50:30.702Z,8.10
2023-05-09T08:53:17.247Z,13.48
2023-05-09T08:56:04.543Z,10.18
2023-05-09T08:58:51.229Z,7.22
2023-05-09T09:01:37.718Z,7.32
2023-05-09T09:07:37.908Z,7.03
2023-05-09T09:10:27.340Z,10.15
2023-05-09T09:13:14.451Z,9.88
2023-05-09T09:16:02.001Z,13.27
2023-05-09T09:18:48.558Z,7.85
2023-05-09T09:21:35.096Z,7.25
2023-05-09T09:24:23.148Z,7.95
2023-05-09T09:27:10.055Z,10.43
2023-05-09T09:29:56.572Z,8.63
2023-05-09T09:32:43.252Z,6.20
2023-05-09T09:35:29.623Z,4.13
2023-05-09T09:38:15.791Z,9.13
2023-05-09T09:41:02.016Z,7.03
2023-05-09T09:43:48.304Z,12.32
2023-05-09T09:46:53.704Z,8.85
2023-05-09T09:49:46.336Z,10.88
2023-05-09T09:52:32.900Z,9.95
2023-05-09T09:55:19.407Z,7.68
2023-05-09T09:58:17.062Z,10.13
2023-05-09T10:01:10.839Z,11.55
2023-05-09T10:06:52.409Z,12.10
2023-05-09T10:09:38.782Z,8.23
2023-05-09T10:12:25.559Z,6.88
2023-05-09T10:15:13.374Z,6.50
2023-05-09T10:18:02.014Z,11.10
2023-05-09T10:20:48.474Z,4.95
2023-05-09T10:23:37.135Z,6.45
2023-05-09T10:26:42.069Z,5.07
2023-05-09T10:29:32.998Z,12.20
2023-05-09T10:32:21.184Z,7.72
2023-05-09T10:35:09.054Z,10.68
2023-05-09T10:37:59.660Z,5.05
2023-05-09T10:40:48.474Z,10.98
2023-05-09T10:43:36.859Z,10.98
2023-05-09T10:46:24.924Z,8.00
2023-05-09T10:49:11.240Z,10.02
2023-05-09T10:51:57.732Z,9.75
2023-05-09T10:54:43.738Z,10.57
2023-05-09T10:57:30.654Z,10.35
2023-05-09T11:00:25.491Z,11.40
2023-05-09T11:03:12.102Z,15.98
2023-05-09T11:05:59.235Z,7.88
2023-05-09T11:08:45.900Z,8.13
2023-05-09T11:11:32.329Z,5.78
2023-05-09T11:14:31.865Z,6.53
2023-05-09T11:17:24.915Z,14.75
2023-05-09T11:20:11.888Z,6.95
2023-05-09T11:22:58.382Z,8.27
2023-05-09T11:25:47.932Z,10.07
2023-05-09T11:28:35.650Z,7.05
2023-05-09T11:31:22.238Z,9.52
2023-05-09T11:34:10.577Z,6.25
2023-05-09T11:37:08.701Z,14.10
2023-05-09T11:40:05.569Z,9.40
2023-05-09T11:43:02.923Z,9.00
2023-05-09T11:45:49.242Z,7.20
2023-05-09T11:48:39.350Z,8.70
2023-05-09T11:51:26.188Z,13.88
2023-05-09T11:54:13.796Z,9.77
2023-05-09T11:57:00.726Z,14.40
2023-05-09T11:59:47.295Z,5.60
2023-05-09T12:02:34.981Z,6.97
2023-05-09T12:05:23.348Z,6.15
2023-05-09T12:08:09.883Z,10.00
2023-05-09T12:10:56.356Z,10.15
2023-05-09T12:13:49.636Z,10.85
2023-05-09T12:16:36.109Z,11.77
2023-05-09T12:19:24.091Z,5.32
2023-05-09T12:22:10.547Z,11.05
2023-05-09T12:24:57.256Z,5.78
2023-05-09T12:27:44.074Z,13.93
2023-05-09T12:30:31.120Z,12.25
2023-05-09T12:33:17.870Z,5.25
2023-05-09T12:36:04.319Z,9.98
2023-05-09T12:38:57.092Z,7.95
2023-05-09T12:41:57.368Z,5.33
2023-05-09T12:47:35.267Z,7.22
2023-05-09T12:50:21.761Z,8.68
2023-05-09T12:53:08.117Z,4.75
2023-05-09T12:56:18.009Z,19.92
2023-05-09T12:59:03.992Z,11.05
2023-05-09T13:01:54.941Z,13.70
2023-05-09T13:04:41.793Z,10.07
2023-05-09T13:07:28.215Z,9.52
2023-05-09T13:10:15.474Z,9.15
2023-05-09T13:13:02.731Z,11.15
2023-05-09T13:15:48.944Z,5.53
2023-05-09T13:18:35.604Z,9.65
2023-05-09T13:21:22.030Z,10.80
2023-05-09T13:24:08.276Z,15.23
2023-05-09T13:26:54.561Z,8.85
2023-05-09T13:29:43.449Z,7.38
2023-05-09T13:32:29.419Z,8.45
2023-05-09T13:35:16.337Z,9.35
2023-05-09T13:38:03.201Z,8.10
2023-05-09T13:40:49.767Z,9.13
2023-05-09T13:43:36.676Z,15.32
2023-05-09T13:46:22.990Z,9.63
2023-05-09T13:49:09.186Z,5.45
2023-05-09T13:51:56.100Z,8.02
2023-05-09T13:54:42.967Z,5.40
2023-05-09T13:57:29.476Z,9.82
2023-05-09T14:00:16.365Z,10.13
2023-05-09T14:03:03.694Z,8.40
2023-05-09T14:05:49.937Z,13.98
2023-05-09T14:08:36.387Z,15.98
2023-05-09T14:11:22.932Z,5.90
2023-05-09T14:14:09.041Z,7.28
2023-05-09T14:16:55.205Z,11.20
2023-05-09T14:19:41.469Z,9.60
2023-05-09T14:22:28.331Z,7.78
2023-05-09T14:25:15.083Z,12.23
2023-05-09T14:28:10.062Z,6.60
2023-05-09T14:30:57.605Z,10.68
2023-05-09T14:33:43.985Z,9.50
2023-05-09T14:36:30.144Z,4.03
2023-05-09T14:39:16.330Z,6.13
2023-05-09T14:42:02.646Z,6.03
2023-05-09T14:44:49.221Z,9.27
2023-05-09T14:47:35.547Z,7.32
2023-05-09T14:50:27.583Z,5.47
2023-05-09T14:53:20.629Z,6.13
2023-05-09T14:56:07.652Z,7.18
2023-05-09T14:58:54.056Z,8.60
2023-05-09T15:01:40.979Z,10.27
2023-05-09T15:04:31.184Z,8.10
2023-05-09T15:07:18.051Z,9.95
2023-05-09T15:10:04.424Z,13.68
2023-05-09T15:12:50.820Z,8.63
2023-05-09T15:15:39.381Z,11.35
2023-05-09T15:18:28.798Z,6.32
2023-05-09T15:21:16.187Z,9.90
2023-05-09T15:24:02.638Z,9.65
2023-05-09T15:26:48.796Z,11.43
2023-05-09T15:29:35.627Z,9.70
2023-05-09T15:32:22.580Z,4.57
2023-05-09T15:35:09.237Z,8.13
2023-05-09T15:37:55.899Z,6.38
2023-05-09T15:40:42.708Z,12.68
2023-05-09T15:43:35.158Z,15.95
2023-05-09T15:46:22.358Z,6.80
2023-05-09T15:49:08.887Z,11.80
2023-05-09T15:51:55.654Z,7.32
2023-05-09T15:54:45.610Z,9.77
2023-05-09T15:57:32.120Z,9.82
2023-05-09T16:00:18.528Z,12.10
2023-05-09T16:03:05.217Z,8.40
2023-05-09T16:05:52.137Z,5.78
2023-05-09T16:08:38.563Z,6.90
2023-05-09T16:11:24.779Z,9.23
2023-05-09T16:14:11.917Z,7.85
2023-05-09T16:16:58.763Z,7.65
2023-05-09T16:19:45.591Z,11.57
2023-05-09T16:22:32.329Z,7.88
2023-05-09T16:25:18.949Z,9.35
2023-05-09T16:28:07.160Z,6.93
2023-05-09T16:30:53.509Z,9.80
2023-05-09T16:33:40.062Z,12.52
2023-05-09T16:36:26.575Z,6.50
2023-05-09T16:39:13.791Z,5.82
2023-05-09T16:42:00.255Z,9.45
2023-05-09T16:44:47.009Z,8.55
2023-05-09T16:47:33.538Z,7.75
2023-05-09T16:50:19.735Z,12.52
2023-05-09T16:53:06.602Z,8.95
2023-05-09T16:55:54.804Z,9.55
2023-05-09T16:58:41.957Z,10.13
2023-05-09T17:01:29.407Z,11.43
2023-05-09T17:04:16.302Z,7.20
2023-05-09T17:07:03.407Z,12.07
2023-05-09T17:09:50.162Z,10.20
2023-05-09T17:12:38.186Z,12.73
2023-05-09T17:15:24.373Z,10.50
2023-05-09T17:18:10.803Z,5.53
2023-05-09T17:20:57.779Z,9.15
2023-05-09T17:23:44.105Z,13.90
2023-05-09T17:26:31.105Z,9.85
2023-05-09T17:29:17.639Z,17.73
2023-05-09T17:32:04.248Z,15.15
2023-05-09T17:34:51.040Z,13.95
2023-05-09T17:37:37.862Z,10.10
2023-05-09T17:40:25.074Z,12.45
2023-05-09T17:43:11.924Z,11.07
2023-05-09T17:45:58.656Z,8.23
2023-05-09T17:48:45.194Z,10.10
2023-05-09T17:51:33.126Z,14.15
2023-05-09T17:54:20.552Z,15.32
2023-05-09T17:57:07.137Z,13.68
2023-05-09T17:59:53.392Z,10.60
2023-05-09T18:02:40.490Z,13.05
2023-05-09T18:05:27.433Z,13.57
2023-05-09T18:08:35.258Z,17.92
2023-05-09T18:11:46.676Z,17.02
2023-05-09T18:14:51.261Z,18.88
2023-05-09T18:20:47.821Z,15.80
2023-05-09T18:23:46.175Z,15.88
2023-05-09T18:26:33.474Z,13.25
2023-05-09T18:29:22.046Z,16.88
2023-05-09T18:32:09.025Z,15.80
2023-05-09T18:34:59.014Z,18.38
2023-05-09T18:37:46.807Z,15.35
2023-05-09T18:40:35.040Z,20.05
2023-05-09T18:43:22.518Z,13.70
2023-05-09T18:46:08.885Z,17.50
2023-05-09T18:48:55.694Z,15.57
2023-05-09T18:51:42.264Z,12.85
2023-05-09T19:09:41.966Z,17.83
2023-05-09T19:13:05.665Z,20.48
2023-05-09T19:15:53.154Z,18.35
2023-05-09T19:18:49.438Z,15.82
2023-05-09T19:24:46.390Z,15.32
2023-05-09T19:27:32.853Z,12.35
2023-05-09T19:30:20.447Z,17.95
2023-05-09T19:33:06.816Z,21.73
2023-05-09T19:35:53.575Z,15.13
2023-05-09T19:38:39.912Z,13.57
2023-05-09T19:41:26.142Z,13.52
2023-05-09T19:44:15.360Z,11.65
2023-05-09T19:50:16.535Z,17.45
2023-05-09T19:53:09.066Z,9.50
2023-05-09T19:56:01.631Z,13.45
2023-05-09T19:58:57.283Z,17.88
2023-05-09T20:01:45.708Z,14.00
2023-05-09T20:04:40.990Z,9.52
2023-05-09T20:07:34.576Z,15.88
2023-05-09T20:13:10.670Z,14.93
2023-05-09T20:16:07.499Z,12.48
2023-05-09T20:18:56.476Z,13.30
2023-05-09T20:21:44.368Z,12.07
2023-05-09T20:27:39.878Z,11.50
2023-05-09T20:30:26.340Z,12.75
2023-05-09T20:33:14.460Z,19.90
2023-05-09T20:36:03.343Z,13.02
2023-05-09T20:38:50.044Z,12.93
2023-05-09T20:41:44.847Z,11.20
2023-05-09T20:44:31.533Z,12.52
2023-05-09T20:47:19.880Z,13.95
2023-05-09T20:50:09.545Z,12.25
2023-05-09T20:52:56.133Z,16.80
2023-05-09T20:55:53.642Z,13.85
2023-05-09T20:59:18.302Z,15.77
2023-05-09T21:02:17.347Z,15.38
2023-05-09T21:05:04.457Z,18.52
2023-05-09T21:11:00.898Z,12.18
2023-05-09T21:13:47.809Z,17.80
2023-05-09T21:16:45.406Z,20.73
2023-05-09T21:19:32.223Z,13.85
2023-05-09T21:22:44.313Z,16.02
2023-05-09T21:25:41.701Z,18.42
2023-05-09T21:28:28.808Z,18.13
2023-05-09T21:31:24.165Z,21.58
2023-05-09T21:37:21.003Z,13.98
2023-05-09T21:43:14.395Z,22.52
2023-05-09T21:46:01.070Z,17.00
2023-05-09T21:48:48.641Z,14.43
2023-05-09T21:51:35.107Z,14.00
2023-05-09T21:54:21.714Z,18.63
2023-05-09T21:57:36.292Z,16.38
2023-05-09T22:00:44.250Z,13.85
2023-05-09T22:04:05.269Z,15.20
2023-05-09T22:07:11.642Z,20.83
2023-05-09T22:13:27.404Z,23.02
2023-05-09T22:16:16.945Z,10.55
2023-05-09T22:19:04.578Z,18.00
2023-05-09T22:22:00.324Z,16.85
2023-05-09T22:24:47.804Z,23.13
2023-05-09T22:27:35.002Z,15.48
2023-05-09T22:30:22.033Z,19.33
2023-05-09T22:36:56.163Z,19.33
2023-05-09T22:42:45.858Z,18.67
2023-05-09T22:45:33.618Z,16.50
2023-05-09T22:55:24.645Z,17.02
2023-05-09T22:58:13.558Z,16.80
2023-05-09T23:01:12.696Z,17.83
2023-05-09T23:07:16.541Z,15.40
2023-05-09T23:10:06.275Z,15.50
2023-05-09T23:12:53.148Z,18.45
2023-05-09T23:15:39.812Z,17.08
2023-05-09T23:18:27.888Z,14.65
2023-05-09T23:21:15.410Z,20.17
2023-05-09T23:24:05.931Z,16.98
2023-05-09T23:26:53.181Z,23.70
2023-05-09T23:29:43.845Z,18.27
2023-05-09T23:32:53.353Z,21.65
2023-05-09T23:35:40.284Z,17.85
2023-05-09T23:38:32.752Z,20.92
2023-05-09T23:41:26.300Z,17.70
2023-05-09T23:44:14.120Z,26.00
2023-05-09T23:47:05.031Z,25.35
2023-05-09T23:52:44.138Z,20.27
2023-05-09T23:55:32.764Z,20.55
2023-05-09T23:58:22.579Z,30.05
